createdAt,value
2023-02-18T00:01:34.420Z,68.50
2023-02-18T00:04:01.640Z,68.50
2023-02-18T00:06:36.400Z,68.60
2023-02-18T00:09:05.276Z,68.60
2023-02-18T00:11:35.138Z,68.80
2023-02-18T00:14:04.987Z,68.90
2023-02-18T00:16:32.363Z,68.80
2023-02-18T00:19:04.521Z,68.90
2023-02-18T00:21:34.301Z,69.00
2023-02-18T00:24:01.411Z,69.10
2023-02-18T00:26:28.505Z,69.10
2023-02-18T00:28:55.706Z,69.30
2023-02-18T00:31:27.329Z,69.30
2023-02-18T00:33:54.920Z,69.40
2023-02-18T00:36:23.172Z,69.40
2023-02-18T00:38:56.834Z,69.40
2023-02-18T00:41:26.910Z,69.40
2023-02-18T00:43:54.365Z,69.50
2023-02-18T00:46:22.495Z,69.50
2023-02-18T00:48:49.642Z,69.50
2023-02-18T00:51:16.747Z,69.40
2023-02-18T00:53:43.994Z,69.50
2023-02-18T00:56:11.278Z,69.60
2023-02-18T00:58:38.931Z,69.60
2023-02-18T01:01:08.006Z,69.80
2023-02-18T01:03:39.929Z,69.80
2023-02-18T01:06:09.004Z,70.00
2023-02-18T01:08:38.356Z,70.00
2023-02-18T01:11:08.483Z,70.20
2023-02-18T01:13:36.080Z,70.20
2023-02-18T01:16:03.627Z,70.30
2023-02-18T01:18:31.499Z,70.50
2023-02-18T01:20:58.723Z,70.60
2023-02-18T01:23:26.076Z,70.70
2023-02-18T01:25:53.556Z,70.70
2023-02-18T01:28:25.216Z,70.80
2023-02-18T01:30:53.821Z,70.90
2023-02-18T01:33:21.744Z,71.00
2023-02-18T01:35:48.859Z,71.00
2023-02-18T01:38:16.111Z,71.10
2023-02-18T01:40:51.665Z,71.10
2023-02-18T01:43:20.881Z,71.10
2023-02-18T01:45:52.602Z,71.20
2023-02-18T01:48:34.636Z,71.30
2023-02-18T01:51:20.372Z,71.30
2023-02-18T01:54:07.132Z,71.30
2023-02-18T01:56:48.776Z,71.40
2023-02-18T01:59:26.854Z,71.40
2023-02-18T02:01:54.523Z,71.50
2023-02-18T02:04:21.621Z,71.40
2023-02-18T02:06:48.666Z,71.50
2023-02-18T02:09:19.114Z,71.50
2023-02-18T02:12:27.444Z,71.50
2023-02-18T02:15:30.689Z,71.40
2023-02-18T02:18:23.625Z,71.40
2023-02-18T02:21:14.922Z,71.30
2023-02-18T02:24:24.239Z,71.40
2023-02-18T02:27:21.741Z,71.40
2023-02-18T02:30:06.524Z,71.50
2023-02-18T02:33:06.979Z,71.40
2023-02-18T02:35:40.043Z,71.50
2023-02-18T02:38:19.665Z,71.50
2023-02-18T02:41:09.675Z,71.60
2023-02-18T02:44:10.930Z,71.60
2023-02-18T02:46:46.022Z,71.60
2023-02-18T02:49:49.437Z,71.70
2023-02-18T02:52:28.446Z,71.70
2023-02-18T02:54:55.486Z,71.80
2023-02-18T02:57:25.373Z,71.80
2023-02-18T03:00:10.645Z,71.80
2023-02-18T03:03:18.199Z,71.80
2023-02-18T03:06:21.640Z,71.80
2023-02-18T03:09:30.071Z,71.80
2023-02-18T03:12:18.642Z,71.70
2023-02-18T03:15:24.886Z,71.70
2023-02-18T03:18:03.774Z,71.80
2023-02-18T03:20:45.006Z,71.70
2023-02-18T03:23:22.014Z,71.70
2023-02-18T03:25:49.949Z,71.80
2023-02-18T03:28:23.363Z,71.90
2023-02-18T03:30:59.877Z,71.80
2023-02-18T03:33:31.499Z,71.80
2023-02-18T03:35:58.886Z,71.90
2023-02-18T03:38:37.123Z,71.90
2023-02-18T03:41:05.428Z,71.80
2023-02-18T03:43:32.814Z,71.80
2023-02-18T03:46:00.370Z,71.90
2023-02-18T03:48:27.627Z,72.00
2023-02-18T03:50:54.854Z,71.80
2023-02-18T03:53:21.907Z,71.70
2023-02-18T03:55:48.917Z,71.60
2023-02-18T03:58:16.097Z,71.40
2023-02-18T04:00:43.211Z,71.30
2023-02-18T04:03:10.329Z,71.20
2023-02-18T04:05:37.227Z,70.90
2023-02-18T04:08:05.647Z,70.60
2023-02-18T04:10:32.620Z,70.50
2023-02-18T04:13:00.009Z,70.30
2023-02-18T04:15:27.119Z,70.30
2023-02-18T04:17:54.137Z,70.10
2023-02-18T04:20:22.457Z,70.20
2023-02-18T04:22:49.455Z,70.00
2023-02-18T04:25:16.540Z,69.80
2023-02-18T04:27:43.631Z,69.80
2023-02-18T04:30:11.360Z,69.80
2023-02-18T04:32:39.056Z,69.70
2023-02-18T04:35:06.894Z,69.80
2023-02-18T04:37:33.941Z,69.70
2023-02-18T04:40:00.922Z,69.80
2023-02-18T04:42:27.925Z,69.80
2023-02-18T04:44:55.352Z,69.90
2023-02-18T04:47:22.443Z,69.80
2023-02-18T04:49:49.532Z,69.90
2023-02-18T04:52:16.603Z,70.00
2023-02-18T04:54:43.541Z,70.00
2023-02-18T04:57:10.669Z,70.00
2023-02-18T04:59:37.744Z,70.00
2023-02-18T05:02:05.584Z,70.10
2023-02-18T05:04:32.768Z,70.00
2023-02-18T05:06:59.795Z,70.10
2023-02-18T05:09:26.785Z,70.10
2023-02-18T05:11:53.725Z,70.00
2023-02-18T05:14:20.846Z,70.00
2023-02-18T05:16:47.823Z,70.00
2023-02-18T05:19:16.940Z,70.00
2023-02-18T05:21:44.634Z,70.00
2023-02-18T05:24:12.434Z,70.00
2023-02-18T05:26:39.584Z,70.00
2023-02-18T05:29:06.555Z,70.00
2023-02-18T05:31:34.034Z,70.00
2023-02-18T05:34:01.052Z,70.00
2023-02-18T05:36:28.103Z,70.00
2023-02-18T05:38:55.233Z,69.90
2023-02-18T05:41:22.396Z,69.80
2023-02-18T05:44:07.866Z,69.90
2023-02-18T05:46:35.187Z,69.80
2023-02-18T05:49:02.271Z,69.70
2023-02-18T05:51:29.243Z,69.60
2023-02-18T05:53:56.317Z,69.40
2023-02-18T05:56:23.334Z,69.20
2023-02-18T05:58:50.431Z,69.00
2023-02-18T06:01:17.414Z,68.80
2023-02-18T06:03:44.273Z,68.80
2023-02-18T06:06:11.625Z,68.80
2023-02-18T06:08:38.995Z,68.80
2023-02-18T06:11:06.111Z,68.50
2023-02-18T06:13:33.228Z,68.40
2023-02-18T06:16:00.441Z,68.40
2023-02-18T06:18:27.660Z,68.20
2023-02-18T06:20:54.890Z,68.20
2023-02-18T06:23:21.920Z,68.00
2023-02-18T06:25:50.452Z,68.00
2023-02-18T06:28:18.534Z,67.70
2023-02-18T06:30:47.535Z,67.70
2023-02-18T06:33:14.859Z,67.60
2023-02-18T06:35:43.330Z,67.50
2023-02-18T06:38:10.234Z,67.30
2023-02-18T06:40:37.253Z,67.20
2023-02-18T06:43:04.287Z,67.30
2023-02-18T06:45:31.239Z,67.10
2023-02-18T06:47:58.118Z,67.10
2023-02-18T06:50:25.024Z,66.80
2023-02-18T06:52:52.177Z,66.90
2023-02-18T06:55:19.203Z,66.90
2023-02-18T06:57:46.258Z,66.80
2023-02-18T07:00:13.882Z,66.70
2023-02-18T07:02:41.096Z,66.80
2023-02-18T07:05:08.445Z,66.80
2023-02-18T07:07:35.688Z,66.70
2023-02-18T07:10:04.049Z,66.80
2023-02-18T07:12:31.207Z,66.70
2023-02-18T07:14:58.231Z,66.70
2023-02-18T07:17:25.367Z,66.70
2023-02-18T07:19:52.446Z,66.60
2023-02-18T07:22:19.355Z,66.70
2023-02-18T07:24:46.244Z,66.50
2023-02-18T07:27:13.230Z,66.60
2023-02-18T07:29:40.277Z,66.40
2023-02-18T07:32:07.268Z,66.30
2023-02-18T07:34:34.431Z,66.30
2023-02-18T07:37:01.753Z,66.30
2023-02-18T07:39:28.663Z,66.40
2023-02-18T07:41:55.674Z,66.40
2023-02-18T07:44:24.075Z,67.20
2023-02-18T07:46:51.013Z,66.50
2023-02-18T07:49:17.902Z,66.40
2023-02-18T07:51:48.453Z,66.50
2023-02-18T07:54:15.531Z,66.50
2023-02-18T07:56:43.141Z,66.50
2023-02-18T07:59:11.328Z,66.70
2023-02-18T08:01:38.373Z,66.60
2023-02-18T08:04:05.567Z,66.70
2023-02-18T08:06:39.704Z,67.00
2023-02-18T08:09:07.519Z,67.30
2023-02-18T08:11:35.346Z,67.50
2023-02-18T08:14:02.298Z,67.60
2023-02-18T08:16:29.339Z,67.70
2023-02-18T08:18:56.503Z,67.90
2023-02-18T08:21:25.902Z,68.00
2023-02-18T08:23:53.709Z,68.10
2023-02-18T08:26:21.586Z,68.20
2023-02-18T08:28:48.946Z,68.30
2023-02-18T08:31:28.596Z,68.30
2023-02-18T08:33:58.339Z,68.50
2023-02-18T08:36:25.447Z,68.80
2023-02-18T08:38:52.514Z,70.00
2023-02-18T08:41:20.039Z,70.70
2023-02-18T08:43:47.920Z,70.60
2023-02-18T08:46:24.854Z,71.30
2023-02-18T08:49:02.079Z,71.60
2023-02-18T08:51:29.926Z,71.40
2023-02-18T08:53:56.844Z,71.70
2023-02-18T08:56:23.666Z,72.00
2023-02-18T08:58:50.766Z,72.40
2023-02-18T09:01:18.076Z,72.80
2023-02-18T09:03:45.045Z,73.10
2023-02-18T09:06:12.135Z,73.30
2023-02-18T09:08:39.100Z,73.60
2023-02-18T09:11:06.588Z,74.40
2023-02-18T09:13:34.384Z,74.80
2023-02-18T09:16:06.782Z,75.80
2023-02-18T09:18:37.922Z,76.20
2023-02-18T09:21:09.501Z,76.70
2023-02-18T09:23:37.229Z,77.60
2023-02-18T09:26:11.163Z,77.70
2023-02-18T09:28:38.283Z,78.30
2023-02-18T09:31:14.634Z,78.40
2023-02-18T09:33:45.944Z,79.00
2023-02-18T09:36:14.211Z,78.50
2023-02-18T09:38:41.264Z,78.70
2023-02-18T09:41:39.552Z,79.60
2023-02-18T09:44:32.608Z,80.60
2023-02-18T09:47:37.393Z,81.50
2023-02-18T09:50:31.386Z,82.60
2023-02-18T09:53:03.985Z,82.80
2023-02-18T09:55:39.561Z,83.20
2023-02-18T09:58:17.774Z,83.40
2023-02-18T10:00:50.860Z,83.80
2023-02-18T10:03:24.566Z,83.80
2023-02-18T10:06:40.747Z,84.30
2023-02-18T10:09:21.867Z,84.00
2023-02-18T10:12:21.127Z,84.30
2023-02-18T10:14:57.425Z,84.70
2023-02-18T10:17:28.789Z,84.60
2023-02-18T10:19:57.052Z,84.70
2023-02-18T10:22:26.770Z,84.40
2023-02-18T10:24:58.810Z,84.80
2023-02-18T10:27:31.124Z,85.10
2023-02-18T10:30:36.221Z,84.90
2023-02-18T10:33:42.903Z,85.10
2023-02-18T10:36:37.706Z,85.10
2023-02-18T10:39:49.506Z,86.00
2023-02-18T10:42:47.306Z,85.90
2023-02-18T10:45:30.124Z,86.10
2023-02-18T10:48:23.676Z,86.00
2023-02-18T10:50:51.163Z,86.50
2023-02-18T10:53:27.126Z,85.90
2023-02-18T10:55:56.543Z,86.50
2023-02-18T10:58:35.544Z,86.50
2023-02-18T11:01:08.568Z,86.50
2023-02-18T11:03:50.523Z,86.20
2023-02-18T11:06:39.987Z,86.30
2023-02-18T11:09:11.957Z,86.10
2023-02-18T11:11:39.859Z,86.30
2023-02-18T11:14:15.206Z,86.80
2023-02-18T11:16:46.377Z,87.00
2023-02-18T11:19:35.630Z,87.30
2023-02-18T11:22:19.587Z,87.30
2023-02-18T11:24:50.531Z,87.70
2023-02-18T11:27:25.976Z,87.70
2023-02-18T11:30:01.848Z,88.10
2023-02-18T11:32:30.962Z,88.10
2023-02-18T11:34:58.328Z,88.10
2023-02-18T11:37:25.767Z,88.30
2023-02-18T11:39:55.992Z,88.70
2023-02-18T11:42:26.857Z,88.50
2023-02-18T11:45:00.206Z,88.60
2023-02-18T11:47:38.118Z,88.90
2023-02-18T11:50:25.328Z,89.20
2023-02-18T11:52:54.007Z,88.90
2023-02-18T11:55:27.226Z,89.40
2023-02-18T11:58:02.362Z,89.70
2023-02-18T12:00:59.752Z,90.00
2023-02-18T12:03:43.022Z,90.10
2023-02-18T12:06:19.093Z,90.10
2023-02-18T12:08:54.915Z,90.40
2023-02-18T12:11:41.779Z,90.50
2023-02-18T12:14:20.288Z,90.70
2023-02-18T12:17:12.785Z,91.00
2023-02-18T12:20:02.528Z,91.00
2023-02-18T12:23:05.645Z,91.10
2023-02-18T12:25:48.871Z,91.20
2023-02-18T12:28:36.603Z,91.30
2023-02-18T12:31:41.189Z,91.50
2023-02-18T12:34:36.502Z,91.60
2023-02-18T12:37:20.630Z,91.60
2023-02-18T12:40:15.821Z,91.70
2023-02-18T12:43:26.677Z,92.00
2023-02-18T12:46:54.799Z,92.20
2023-02-18T12:50:17.916Z,92.20
2023-02-18T12:53:25.536Z,92.50
2023-02-18T12:56:22.946Z,92.70
2023-02-18T12:58:49.820Z,93.00
2023-02-18T13:01:41.706Z,92.90
2023-02-18T13:04:48.075Z,93.10
2023-02-18T13:07:53.717Z,93.30
2023-02-18T13:10:44.852Z,93.50
2023-02-18T13:13:18.655Z,93.70
2023-02-18T13:16:00.254Z,93.80
2023-02-18T13:18:41.120Z,94.00
2023-02-18T13:21:13.142Z,94.10
2023-02-18T13:23:52.526Z,94.00
2023-02-18T13:26:21.209Z,94.10
2023-02-18T13:29:15.769Z,94.20
2023-02-18T13:32:13.279Z,94.20
2023-02-18T13:34:49.117Z,94.20
2023-02-18T13:38:27.143Z,94.40
2023-02-18T13:40:57.123Z,94.30
2023-02-18T13:43:30.317Z,93.90
2023-02-18T13:46:11.858Z,93.90
2023-02-18T13:48:55.422Z,94.10
2023-02-18T13:51:44.565Z,94.10
2023-02-18T13:54:17.549Z,94.00
2023-02-18T13:56:54.735Z,94.10
2023-02-18T13:59:42.176Z,94.00
2023-02-18T14:02:21.648Z,94.20
2023-02-18T14:04:51.811Z,94.30
2023-02-18T14:07:41.558Z,94.20
2023-02-18T14:10:18.281Z,94.10
2023-02-18T14:12:57.796Z,94.20
2023-02-18T14:15:24.796Z,94.50
2023-02-18T14:18:13.809Z,94.00
2023-02-18T14:20:40.969Z,94.00
2023-02-18T14:23:23.333Z,94.10
2023-02-18T14:26:34.042Z,94.20
2023-02-18T14:29:07.879Z,94.00
2023-02-18T14:31:53.773Z,93.90
2023-02-18T14:34:23.934Z,94.00
2023-02-18T14:37:00.409Z,93.90
2023-02-18T14:39:49.119Z,94.10
2023-02-18T14:42:47.771Z,94.30
2023-02-18T14:46:00.949Z,94.00
2023-02-18T14:49:07.786Z,94.10
2023-02-18T14:51:35.782Z,94.20
2023-02-18T14:54:06.722Z,94.10
2023-02-18T14:56:39.807Z,94.20
2023-02-18T14:59:07.163Z,94.20
2023-02-18T15:01:35.989Z,94.20
2023-02-18T15:04:04.845Z,94.20
2023-02-18T15:06:33.540Z,94.30
2023-02-18T15:09:20.144Z,94.30
2023-02-18T15:12:09.417Z,94.30
2023-02-18T15:14:40.676Z,94.30
2023-02-18T15:17:15.378Z,94.20
2023-02-18T15:19:50.143Z,94.30
2023-02-18T15:22:24.748Z,94.40
2023-02-18T15:24:54.944Z,94.50
2023-02-18T15:27:25.884Z,94.40
2023-02-18T15:30:18.850Z,94.50
2023-02-18T15:32:58.742Z,94.30
2023-02-18T15:35:33.052Z,94.20
2023-02-18T15:38:01.153Z,94.20
2023-02-18T15:40:33.214Z,94.30
2023-02-18T15:43:02.373Z,94.50
2023-02-18T15:45:35.325Z,94.50
2023-02-18T15:48:03.359Z,94.60
2023-02-18T15:50:37.305Z,94.60
2023-02-18T15:53:16.065Z,94.70
2023-02-18T15:55:48.531Z,94.70
2023-02-18T15:58:26.705Z,94.60
2023-02-18T16:00:56.253Z,94.70
2023-02-18T16:03:31.719Z,94.70
2023-02-18T16:06:31.164Z,94.70
2023-02-18T16:09:12.898Z,94.70
2023-02-18T16:11:44.723Z,94.70
2023-02-18T16:14:28.505Z,94.70
2023-02-18T16:17:18.358Z,94.70
2023-02-18T16:20:22.526Z,94.70
2023-02-18T16:22:54.846Z,94.60
2023-02-18T16:25:40.091Z,94.60
2023-02-18T16:28:30.382Z,94.50
2023-02-18T16:30:57.199Z,94.60
2023-02-18T16:33:24.089Z,94.60
2023-02-18T16:35:51.259Z,94.60
2023-02-18T16:38:22.181Z,94.60
2023-02-18T16:40:49.972Z,94.60
2023-02-18T16:43:20.605Z,94.60
2023-02-18T16:45:53.575Z,94.60
2023-02-18T16:48:33.501Z,94.60
2023-02-18T16:51:12.341Z,94.70
2023-02-18T16:53:39.875Z,94.70
2023-02-18T16:56:15.918Z,94.60
2023-02-18T16:58:43.067Z,94.40
2023-02-18T17:01:23.701Z,94.30
2023-02-18T17:03:52.340Z,94.10
2023-02-18T17:06:20.231Z,94.00
2023-02-18T17:08:47.471Z,93.90
2023-02-18T17:11:35.074Z,93.90
2023-02-18T17:14:05.190Z,93.80
2023-02-18T17:16:32.319Z,93.80
2023-02-18T17:18:59.400Z,93.70
2023-02-18T17:21:26.883Z,93.70
2023-02-18T17:23:54.309Z,93.60
2023-02-18T17:26:25.944Z,93.60
2023-02-18T17:28:55.456Z,93.60
2023-02-18T17:31:27.101Z,93.50
2023-02-18T17:33:56.875Z,93.50
2023-02-18T17:36:23.909Z,93.50
2023-02-18T17:38:51.098Z,93.50
2023-02-18T17:41:18.742Z,93.60
2023-02-18T17:43:45.785Z,93.60
2023-02-18T17:46:16.358Z,93.60
2023-02-18T17:48:44.717Z,93.60
2023-02-18T17:51:27.939Z,93.60
2023-02-18T17:53:55.730Z,93.60
2023-02-18T17:56:23.390Z,93.70
2023-02-18T17:58:50.296Z,93.70
2023-02-18T18:01:21.057Z,93.70
2023-02-18T18:03:48.239Z,93.80
2023-02-18T18:06:19.100Z,93.80
2023-02-18T18:08:47.239Z,93.80
2023-02-18T18:11:22.367Z,93.90
2023-02-18T18:13:49.898Z,93.90
2023-02-18T18:16:19.034Z,93.90
2023-02-18T18:18:46.233Z,93.90
2023-02-18T18:21:22.846Z,93.90
2023-02-18T18:23:50.257Z,93.90
2023-02-18T18:26:17.561Z,94.20
2023-02-18T18:28:44.571Z,94.00
2023-02-18T18:31:16.301Z,94.00
2023-02-18T18:33:48.526Z,94.00
2023-02-18T18:36:17.379Z,94.10
2023-02-18T18:38:44.415Z,94.10
2023-02-18T18:41:16.794Z,94.50
2023-02-18T18:43:43.766Z,94.10
2023-02-18T18:46:10.683Z,94.10
2023-02-18T18:48:38.155Z,94.10
2023-02-18T18:51:05.965Z,94.20
2023-02-18T18:53:35.478Z,94.10
2023-02-18T18:56:06.482Z,94.10
2023-02-18T18:58:33.949Z,94.00
2023-02-18T19:01:04.782Z,94.00
2023-02-18T19:03:37.594Z,94.00
2023-02-18T19:06:05.084Z,93.90
2023-02-18T19:08:32.307Z,93.90
2023-02-18T19:10:59.163Z,93.90
2023-02-18T19:13:30.409Z,93.90
2023-02-18T19:16:29.742Z,93.80
2023-02-18T19:18:56.762Z,93.80
2023-02-18T19:21:23.659Z,93.90
2023-02-18T19:23:50.850Z,93.80
2023-02-18T19:26:18.326Z,93.80
2023-02-18T19:28:46.211Z,93.90
2023-02-18T19:31:13.864Z,93.80
2023-02-18T19:33:41.258Z,93.80
2023-02-18T19:36:10.838Z,93.80
2023-02-18T19:38:39.020Z,93.80
2023-02-18T19:41:13.511Z,93.80
2023-02-18T19:43:41.955Z,93.80
2023-02-18T19:46:15.254Z,93.80
2023-02-18T19:48:43.076Z,93.80
2023-02-18T19:51:10.623Z,93.80
2023-02-18T19:53:38.098Z,93.80
2023-02-18T19:56:09.084Z,93.80
2023-02-18T19:58:37.185Z,93.90
2023-02-18T20:01:04.673Z,93.90
2023-02-18T20:03:31.823Z,93.80
2023-02-18T20:05:58.748Z,93.80
2023-02-18T20:08:25.601Z,93.80
2023-02-18T20:10:59.583Z,93.80
2023-02-18T20:13:27.069Z,93.80
2023-02-18T20:15:54.251Z,93.90
2023-02-18T20:18:21.209Z,93.90
2023-02-18T20:20:49.475Z,93.80
2023-02-18T20:23:16.608Z,93.90
2023-02-18T20:25:43.507Z,93.90
2023-02-18T20:28:10.554Z,93.90
2023-02-18T20:30:37.595Z,93.90
2023-02-18T20:33:05.682Z,93.90
2023-02-18T20:35:32.725Z,93.90
2023-02-18T20:38:00.070Z,93.90
2023-02-18T20:40:27.564Z,93.90
2023-02-18T20:42:54.499Z,93.90
2023-02-18T20:45:21.564Z,93.90
2023-02-18T20:47:48.502Z,93.90
2023-02-18T20:50:16.116Z,93.90
2023-02-18T20:52:43.058Z,94.00
2023-02-18T20:55:10.090Z,94.00
2023-02-18T20:57:37.360Z,94.00
2023-02-18T21:00:05.831Z,94.00
2023-02-18T21:02:32.870Z,94.00
2023-02-18T21:04:59.784Z,93.90
2023-02-18T21:07:26.759Z,93.90
2023-02-18T21:09:53.630Z,93.90
2023-02-18T21:12:20.779Z,93.90
2023-02-18T21:14:47.665Z,93.90
2023-02-18T21:17:14.499Z,93.90
2023-02-18T21:19:41.848Z,93.90
2023-02-18T21:22:08.837Z,93.90
2023-02-18T21:24:35.749Z,93.90
2023-02-18T21:27:02.775Z,93.90
2023-02-18T21:29:29.649Z,93.90
2023-02-18T21:31:56.744Z,93.90
2023-02-18T21:34:25.993Z,93.90
2023-02-18T21:36:53.045Z,93.90
2023-02-18T21:39:19.974Z,93.90
2023-02-18T21:41:46.935Z,93.90
2023-02-18T21:44:13.888Z,93.90
2023-02-18T21:46:41.122Z,93.90
2023-02-18T21:49:12.382Z,93.90
2023-02-18T21:51:57.472Z,93.90
2023-02-18T21:54:41.030Z,93.80
2023-02-18T21:57:15.482Z,93.80
2023-02-18T21:59:43.351Z,93.80
2023-02-18T22:02:20.851Z,93.80
2023-02-18T22:04:49.649Z,93.80
2023-02-18T22:07:18.856Z,93.90
2023-02-18T22:09:48.451Z,93.90
2023-02-18T22:12:16.955Z,93.90
2023-02-18T22:14:45.057Z,94.20
2023-02-18T22:17:13.414Z,93.80
2023-02-18T22:19:40.532Z,93.80
2023-02-18T22:22:07.524Z,93.80
2023-02-18T22:24:34.959Z,93.80
2023-02-18T22:27:02.149Z,93.80
2023-02-18T22:29:31.514Z,93.80
2023-02-18T22:31:58.588Z,93.80
2023-02-18T22:34:25.606Z,93.80
2023-02-18T22:36:52.607Z,93.80
2023-02-18T22:39:19.854Z,93.80
2023-02-18T22:41:46.960Z,93.80
2023-02-18T22:44:16.765Z,93.80
2023-02-18T22:46:44.251Z,93.70
2023-02-18T22:49:11.727Z,93.70
2023-02-18T22:51:42.170Z,93.60
2023-02-18T22:54:15.417Z,93.60
2023-02-18T22:56:42.944Z,93.60
2023-02-18T22:59:12.242Z,93.60
2023-02-18T23:01:43.094Z,93.60
2023-02-18T23:04:13.913Z,93.60
2023-02-18T23:06:44.267Z,93.60
2023-02-18T23:09:19.696Z,93.60
2023-02-18T23:11:51.557Z,93.60
2023-02-18T23:14:19.395Z,93.60
2023-02-18T23:17:07.548Z,93.60
2023-02-18T23:19:37.108Z,93.60
2023-02-18T23:22:04.672Z,93.60
2023-02-18T23:24:34.877Z,93.60
2023-02-18T23:27:03.351Z,93.50
2023-02-18T23:29:31.135Z,93.50
2023-02-18T23:31:58.351Z,93.40
2023-02-18T23:34:25.350Z,93.50
2023-02-18T23:36:52.386Z,93.50
2023-02-18T23:39:22.667Z,93.50
2023-02-18T23:41:51.427Z,93.50
2023-02-18T23:44:22.973Z,93.40
2023-02-18T23:46:50.906Z,93.50
2023-02-18T23:49:23.549Z,93.50
2023-02-18T23:51:52.991Z,93.50
2023-02-18T23:54:20.815Z,93.50
2023-02-18T23:56:47.897Z,93.50
2023-02-18T23:59:14.889Z,93.60
